sensor_id;sensor_type;location;lat;lon;timestamp;pressure;altitude;pressure_sealevel;temperature
27826;BMP280;15077;49.704;9.908;2023-02-28T00:00:14;99094.53;;;3.37
27826;BMP280;15077;49.704;9.908;2023-02-28T00:02:42;99093.69;;;3.35
27826;BMP280;15077;49.704;9.908;2023-02-28T00:05:10;99096.19;;;3.35
27826;BMP280;15077;49.704;9.908;2023-02-28T00:07:37;99091.16;;;3.33
27826;BMP280;15077;49.704;9.908;2023-02-28T00:10:06;99092.03;;;3.32
27826;BMP280;15077;49.704;9.908;2023-02-28T00:12:34;99080.31;;;3.31
27826;BMP280;15077;49.704;9.908;2023-02-28T00:15:00;99090.34;;;3.31
27826;BMP280;15077;49.704;9.908;2023-02-28T00:17:26;99091.16;;;3.32
27826;BMP280;15077;49.704;9.908;2023-02-28T00:19:52;99088.66;;;3.33
27826;BMP280;15077;49.704;9.908;2023-02-28T00:22:20;99088.66;;;3.33
27826;BMP280;15077;49.704;9.908;2023-02-28T00:24:47;99080.31;;;3.33
27826;BMP280;15077;49.704;9.908;2023-02-28T00:27:14;99087.03;;;3.35
27826;BMP280;15077;49.704;9.908;2023-02-28T00:29:40;99082.84;;;3.37
27826;BMP280;15077;49.704;9.908;2023-02-28T00:32:06;99087.03;;;3.38
27826;BMP280;15077;49.704;9.908;2023-02-28T00:34:32;99083.69;;;3.42
27826;BMP280;15077;49.704;9.908;2023-02-28T00:37:05;99092.06;;;3.44
27826;BMP280;15077;49.704;9.908;2023-02-28T00:39:33;99085.38;;;3.46
27826;BMP280;15077;49.704;9.908;2023-02-28T00:41:59;99087.88;;;3.47
27826;BMP280;15077;49.704;9.908;2023-02-28T00:44:25;99080.38;;;3.49
27826;BMP280;15077;49.704;9.908;2023-02-28T00:46:51;99076.19;;;3.49
27826;BMP280;15077;49.704;9.908;2023-02-28T00:49:17;99089.56;;;3.50
27826;BMP280;15077;49.704;9.908;2023-02-28T00:51:43;99079.53;;;3.50
27826;BMP280;15077;49.704;9.908;2023-02-28T00:54:08;99079.53;;;3.50
27826;BMP280;15077;49.704;9.908;2023-02-28T00:56:34;99092.91;;;3.50
27826;BMP280;15077;49.704;9.908;2023-02-28T00:59:00;99073.66;;;3.49
27826;BMP280;15077;49.704;9.908;2023-02-28T01:01:26;99076.19;;;3.52
27826;BMP280;15077;49.704;9.908;2023-02-28T01:03:51;99079.56;;;3.53
27826;BMP280;15077;49.704;9.908;2023-02-28T01:06:17;99074.53;;;3.53
27826;BMP280;15077;49.704;9.908;2023-02-28T01:08:43;99072.84;;;3.52
27826;BMP280;15077;49.704;9.908;2023-02-28T01:11:11;99077.03;;;3.50
27826;BMP280;15077;49.704;9.908;2023-02-28T01:13:38;99072.84;;;3.47
27826;BMP280;15077;49.704;9.908;2023-02-28T01:16:05;99083.69;;;3.45
27826;BMP280;15077;49.704;9.908;2023-02-28T01:18:31;99078.66;;;3.42
27826;BMP280;15077;49.704;9.908;2023-02-28T01:20:57;99077.84;;;3.40
27826;BMP280;15077;49.704;9.908;2023-02-28T01:23:23;99077.00;;;3.38
27826;BMP280;15077;49.704;9.908;2023-02-28T01:25:52;99073.63;;;3.36
27826;BMP280;15077;49.704;9.908;2023-02-28T01:28:18;99071.97;;;3.32
27826;BMP280;15077;49.704;9.908;2023-02-28T01:30:48;99078.63;;;3.30
27826;BMP280;15077;49.704;9.908;2023-02-28T01:33:14;99077.78;;;3.27
27826;BMP280;15077;49.704;9.908;2023-02-28T01:35:40;99075.28;;;3.22
27826;BMP280;15077;49.704;9.908;2023-02-28T01:38:06;99069.41;;;3.20
27826;BMP280;15077;49.704;9.908;2023-02-28T01:40:31;99078.59;;;3.18
27826;BMP280;15077;49.704;9.908;2023-02-28T01:42:57;99079.41;;;3.17
27826;BMP280;15077;49.704;9.908;2023-02-28T01:45:30;99074.41;;;3.16
27826;BMP280;15077;49.704;9.908;2023-02-28T01:48:04;99065.22;;;3.15
27826;BMP280;15077;49.704;9.908;2023-02-28T01:50:38;99067.72;;;3.15
27826;BMP280;15077;49.704;9.908;2023-02-28T01:53:10;99064.38;;;3.14
27826;BMP280;15077;49.704;9.908;2023-02-28T01:55:39;99066.06;;;3.15
27826;BMP280;15077;49.704;9.908;2023-02-28T01:58:07;99066.06;;;3.15
27826;BMP280;15077;49.704;9.908;2023-02-28T02:00:34;99061.03;;;3.15
27826;BMP280;15077;49.704;9.908;2023-02-28T02:03:11;99060.22;;;3.16
27826;BMP280;15077;49.704;9.908;2023-02-28T02:05:40;99056.03;;;3.15
27826;BMP280;15077;49.704;9.908;2023-02-28T02:08:17;99050.19;;;3.16
27826;BMP280;15077;49.704;9.908;2023-02-28T02:10:50;99044.34;;;3.16
27826;BMP280;15077;49.704;9.908;2023-02-28T02:13:54;99047.69;;;3.15
27826;BMP280;15077;49.704;9.908;2023-02-28T02:16:39;99042.69;;;3.15
27826;BMP280;15077;49.704;9.908;2023-02-28T02:25:54;99041.81;;;3.11
27826;BMP280;15077;49.704;9.908;2023-02-28T02:34:43;99028.47;;;3.11
27826;BMP280;15077;49.704;9.908;2023-02-28T02:37:42;99017.63;;;3.10
27826;BMP280;15077;49.704;9.908;2023-02-28T02:40:20;99030.13;;;3.09
27826;BMP280;15077;49.704;9.908;2023-02-28T02:43:20;99023.44;;;3.05
27826;BMP280;15077;49.704;9.908;2023-02-28T02:45:55;99028.44;;;3.06
27826;BMP280;15077;49.704;9.908;2023-02-28T02:48:30;99036.78;;;3.05
27826;BMP280;15077;49.704;9.908;2023-02-28T02:51:03;99023.44;;;3.06
27826;BMP280;15077;49.704;9.908;2023-02-28T02:53:38;99030.13;;;3.07
27826;BMP280;15077;49.704;9.908;2023-02-28T02:56:08;99032.63;;;3.07
27826;BMP280;15077;49.704;9.908;2023-02-28T02:58:41;99037.66;;;3.10
27826;BMP280;15077;49.704;9.908;2023-02-28T03:01:23;99036.81;;;3.11
27826;BMP280;15077;49.704;9.908;2023-02-28T03:04:05;99037.66;;;3.10
27826;BMP280;15077;49.704;9.908;2023-02-28T03:06:31;99045.19;;;3.10
27826;BMP280;15077;49.704;9.908;2023-02-28T03:08:57;99041.00;;;3.12
27826;BMP280;15077;49.704;9.908;2023-02-28T03:11:25;99036.81;;;3.11
27826;BMP280;15077;49.704;9.908;2023-02-28T03:14:22;99041.81;;;3.13
27826;BMP280;15077;49.704;9.908;2023-02-28T03:25:57;99038.47;;;3.06
27826;BMP280;15077;49.704;9.908;2023-02-28T03:28:42;99040.97;;;3.06
27826;BMP280;15077;49.704;9.908;2023-02-28T03:31:50;99035.16;;;3.07
27826;BMP280;15077;49.704;9.908;2023-02-28T03:34:15;99038.47;;;3.06
27826;BMP280;15077;49.704;9.908;2023-02-28T03:36:57;99041.78;;;3.05
27826;BMP280;15077;49.704;9.908;2023-02-28T03:39:42;99037.63;;;3.04
27826;BMP280;15077;49.704;9.908;2023-02-28T03:42:18;99041.78;;;3.04
27826;BMP280;15077;49.704;9.908;2023-02-28T03:44:57;99045.13;;;3.01
27826;BMP280;15077;49.704;9.908;2023-02-28T03:47:57;99045.97;;;3.00
27826;BMP280;15077;49.704;9.908;2023-02-28T03:50:41;99035.09;;;2.95
27826;BMP280;15077;49.704;9.908;2023-02-28T03:53:27;99040.94;;;2.94
27826;BMP280;15077;49.704;9.908;2023-02-28T03:56:07;99040.09;;;2.92
27826;BMP280;15077;49.704;9.908;2023-02-28T04:01:41;99043.41;;;2.88
27826;BMP280;15077;49.704;9.908;2023-02-28T04:04:08;99042.53;;;2.79
27826;BMP280;15077;49.704;9.908;2023-02-28T04:06:35;99037.53;;;2.81
27826;BMP280;15077;49.704;9.908;2023-02-28T04:09:03;99045.06;;;2.81
27826;BMP280;15077;49.704;9.908;2023-02-28T04:11:39;99045.88;;;2.81
27826;BMP280;15077;49.704;9.908;2023-02-28T04:14:08;99042.53;;;2.79
27826;BMP280;15077;49.704;9.908;2023-02-28T04:16:38;99044.19;;;2.79
27826;BMP280;15077;49.704;9.908;2023-02-28T04:19:07;99044.19;;;2.77
27826;BMP280;15077;49.704;9.908;2023-02-28T04:21:36;99050.00;;;2.76
27826;BMP280;15077;49.704;9.908;2023-02-28T04:24:12;99045.00;;;2.75
27826;BMP280;15077;49.704;9.908;2023-02-28T04:26:42;99044.97;;;2.73
27826;BMP280;15077;49.704;9.908;2023-02-28T04:29:14;99049.97;;;2.72
27826;BMP280;15077;49.704;9.908;2023-02-28T04:31:40;99049.16;;;2.70
27826;BMP280;15077;49.704;9.908;2023-02-28T04:34:06;99044.97;;;2.69
27826;BMP280;15077;49.704;9.908;2023-02-28T04:36:32;99050.84;;;2.69
27826;BMP280;15077;49.704;9.908;2023-02-28T04:38:58;99048.31;;;2.68
27826;BMP280;15077;49.704;9.908;2023-02-28T04:41:24;99050.81;;;2.68
27826;BMP280;15077;49.704;9.908;2023-02-28T04:43:53;99047.44;;;2.66
27826;BMP280;15077;49.704;9.908;2023-02-28T04:46:19;99046.63;;;2.64
27826;BMP280;15077;49.704;9.908;2023-02-28T04:48:46;99048.28;;;2.62
27826;BMP280;15077;49.704;9.908;2023-02-28T04:51:16;99043.28;;;2.59
27826;BMP280;15077;49.704;9.908;2023-02-28T04:53:42;99044.91;;;2.57
27826;BMP280;15077;49.704;9.908;2023-02-28T04:56:13;99045.75;;;2.56
27826;BMP280;15077;49.704;9.908;2023-02-28T04:58:39;99048.25;;;2.53
27826;BMP280;15077;49.704;9.908;2023-02-28T05:01:16;99044.88;;;2.51
27826;BMP280;15077;49.704;9.908;2023-02-28T05:03:43;99049.06;;;2.52
27826;BMP280;15077;49.704;9.908;2023-02-28T05:06:11;99053.22;;;2.50
27826;BMP280;15077;49.704;9.908;2023-02-28T05:08:38;99058.22;;;2.50
27826;BMP280;15077;49.704;9.908;2023-02-28T05:11:07;99052.38;;;2.51
27826;BMP280;15077;49.704;9.908;2023-02-28T05:13:34;99048.22;;;2.48
27826;BMP280;15077;49.704;9.908;2023-02-28T05:16:01;99055.72;;;2.47
27826;BMP280;15077;49.704;9.908;2023-02-28T05:18:26;99053.22;;;2.47
27826;BMP280;15077;49.704;9.908;2023-02-28T05:20:52;99058.19;;;2.44
27826;BMP280;15077;49.704;9.908;2023-02-28T05:23:22;99064.84;;;2.45
27826;BMP280;15077;49.704;9.908;2023-02-28T05:25:48;99054.00;;;2.43
27826;BMP280;15077;49.704;9.908;2023-02-28T05:28:14;99055.69;;;2.42
27826;BMP280;15077;49.704;9.908;2023-02-28T05:30:40;99058.19;;;2.41
27826;BMP280;15077;49.704;9.908;2023-02-28T05:33:05;99074.84;;;2.42
27826;BMP280;15077;49.704;9.908;2023-02-28T05:35:31;99064.00;;;2.40
27826;BMP280;15077;49.704;9.908;2023-02-28T05:37:57;99070.66;;;2.40
27826;BMP280;15077;49.704;9.908;2023-02-28T05:40:23;99069.00;;;2.39
27826;BMP280;15077;49.704;9.908;2023-02-28T05:42:50;99066.47;;;2.37
27826;BMP280;15077;49.704;9.908;2023-02-28T05:45:16;99063.97;;;2.36
27826;BMP280;15077;49.704;9.908;2023-02-28T05:47:42;99072.28;;;2.35
27826;BMP280;15077;49.704;9.908;2023-02-28T05:50:09;99071.47;;;2.34
27826;BMP280;15077;49.704;9.908;2023-02-28T05:52:36;99073.13;;;2.34
27826;BMP280;15077;49.704;9.908;2023-02-28T05:55:03;99076.44;;;2.31
27826;BMP280;15077;49.704;9.908;2023-02-28T05:57:29;99074.75;;;2.30
27826;BMP280;15077;49.704;9.908;2023-02-28T05:59:55;99073.06;;;2.29
27826;BMP280;15077;49.704;9.908;2023-02-28T06:02:21;99078.06;;;2.28
27826;BMP280;15077;49.704;9.908;2023-02-28T06:04:46;99081.41;;;2.27
27826;BMP280;15077;49.704;9.908;2023-02-28T06:07:12;99087.25;;;2.27
27826;BMP280;15077;49.704;9.908;2023-02-28T06:09:38;99082.22;;;2.26
27826;BMP280;15077;49.704;9.908;2023-02-28T06:12:06;99084.72;;;2.26
27826;BMP280;15077;49.704;9.908;2023-02-28T06:14:34;99089.72;;;2.26
27826;BMP280;15077;49.704;9.908;2023-02-28T06:17:00;99085.56;;;2.25
27826;BMP280;15077;49.704;9.908;2023-02-28T06:19:27;99090.56;;;2.26
27826;BMP280;15077;49.704;9.908;2023-02-28T06:21:55;99082.25;;;2.27
27826;BMP280;15077;49.704;9.908;2023-02-28T06:24:24;99088.91;;;2.25
27826;BMP280;15077;49.704;9.908;2023-02-28T06:26:50;99088.88;;;2.22
27826;BMP280;15077;49.704;9.908;2023-02-28T06:29:16;99091.38;;;2.19
27826;BMP280;15077;49.704;9.908;2023-02-28T06:31:45;99091.34;;;2.16
27826;BMP280;15077;49.704;9.908;2023-02-28T06:34:12;99096.31;;;2.13
27826;BMP280;15077;49.704;9.908;2023-02-28T06:36:40;99093.78;;;2.10
27826;BMP280;15077;49.704;9.908;2023-02-28T06:39:07;99092.09;;;2.06
27826;BMP280;15077;49.704;9.908;2023-02-28T06:41:34;99094.59;;;2.06
27826;BMP280;15077;49.704;9.908;2023-02-28T06:44:05;99100.38;;;2.04
27826;BMP280;15077;49.704;9.908;2023-02-28T06:46:32;99109.53;;;2.00
27826;BMP280;15077;49.704;9.908;2023-02-28T06:48:58;99104.53;;;1.99
27826;BMP280;15077;49.704;9.908;2023-02-28T06:51:23;99099.50;;;1.97
27826;BMP280;15077;49.704;9.908;2023-02-28T06:53:50;99102.81;;;1.96
27826;BMP280;15077;49.704;9.908;2023-02-28T06:56:18;99108.66;;;1.95
27826;BMP280;15077;49.704;9.908;2023-02-28T06:58:50;99114.50;;;1.97
27826;BMP280;15077;49.704;9.908;2023-02-28T07:01:17;99119.50;;;1.97
27826;BMP280;15077;49.704;9.908;2023-02-28T07:03:45;99118.69;;;1.97
27826;BMP280;15077;49.704;9.908;2023-02-28T07:06:11;99117.00;;;1.97
27826;BMP280;15077;49.704;9.908;2023-02-28T07:08:37;99116.16;;;1.95
27826;BMP280;15077;49.704;9.908;2023-02-28T07:11:04;99114.50;;;1.97
27826;BMP280;15077;49.704;9.908;2023-02-28T07:13:30;99116.19;;;1.98
27826;BMP280;15077;49.704;9.908;2023-02-28T07:16:01;99117.88;;;2.01
27826;BMP280;15077;49.704;9.908;2023-02-28T07:18:28;99105.28;;;1.92
27826;BMP280;15077;49.704;9.908;2023-02-28T07:20:53;99105.28;;;1.93
27826;BMP280;15077;49.704;9.908;2023-02-28T07:23:20;99110.31;;;1.95
27826;BMP280;15077;49.704;9.908;2023-02-28T07:25:46;99113.69;;;1.97
27826;BMP280;15077;49.704;9.908;2023-02-28T07:28:13;99115.34;;;1.99
27826;BMP280;15077;49.704;9.908;2023-02-28T07:30:40;99108.72;;;2.01
27826;BMP280;15077;49.704;9.908;2023-02-28T07:33:06;99112.88;;;2.04
27826;BMP280;15077;49.704;9.908;2023-02-28T07:35:32;99114.59;;;2.08
27826;BMP280;15077;49.704;9.908;2023-02-28T07:37:59;99120.47;;;2.13
27826;BMP280;15077;49.704;9.908;2023-02-28T07:40:26;99121.34;;;2.16
27826;BMP280;15077;49.704;9.908;2023-02-28T07:42:52;99113.88;;;2.19
27826;BMP280;15077;49.704;9.908;2023-02-28T07:45:18;99125.56;;;2.25
27826;BMP280;15077;49.704;9.908;2023-02-28T07:47:45;99124.75;;;2.27
27826;BMP280;15077;49.704;9.908;2023-02-28T07:50:15;99118.16;;;2.34
27826;BMP280;15077;49.704;9.908;2023-02-28T07:52:41;99128.22;;;2.40
27826;BMP280;15077;49.704;9.908;2023-02-28T07:55:09;99119.88;;;2.42
27826;BMP280;15077;49.704;9.908;2023-02-28T07:57:36;99127.44;;;2.48
27826;BMP280;15077;49.704;9.908;2023-02-28T08:00:05;99115.81;;;2.53
27826;BMP280;15077;49.704;9.908;2023-02-28T08:02:32;99112.47;;;2.58
27826;BMP280;15077;49.704;9.908;2023-02-28T08:04:57;99118.38;;;2.62
27826;BMP280;15077;49.704;9.908;2023-02-28T08:07:23;99117.56;;;2.70
27826;BMP280;15077;49.704;9.908;2023-02-28T08:09:49;99120.94;;;2.74
27826;BMP280;15077;49.704;9.908;2023-02-28T08:12:14;99125.16;;;2.81
27826;BMP280;15077;49.704;9.908;2023-02-28T08:14:40;99125.22;;;2.89
27826;BMP280;15077;49.704;9.908;2023-02-28T08:17:06;99123.56;;;2.94
27826;BMP280;15077;49.704;9.908;2023-02-28T08:19:32;99124.41;;;3.01
27826;BMP280;15077;49.704;9.908;2023-02-28T08:21:58;99129.44;;;3.04
27826;BMP280;15077;49.704;9.908;2023-02-28T08:24:24;99131.16;;;3.08
27826;BMP280;15077;49.704;9.908;2023-02-28T08:26:50;99127.84;;;3.10
27826;BMP280;15077;49.704;9.908;2023-02-28T08:29:15;99134.50;;;3.14
27826;BMP280;15077;49.704;9.908;2023-02-28T08:31:42;99131.22;;;3.24
27826;BMP280;15077;49.704;9.908;2023-02-28T08:34:11;99124.59;;;3.29
27826;BMP280;15077;49.704;9.908;2023-02-28T08:36:38;99125.44;;;3.36
27826;BMP280;15077;49.704;9.908;2023-02-28T08:39:04;99120.44;;;3.43
27826;BMP280;15077;49.704;9.908;2023-02-28T08:41:31;99135.50;;;3.52
27826;BMP280;15077;49.704;9.908;2023-02-28T08:43:57;99126.31;;;3.54
27826;BMP280;15077;49.704;9.908;2023-02-28T08:46:23;99129.69;;;3.62
27826;BMP280;15077;49.704;9.908;2023-02-28T08:48:53;99128.84;;;3.66
27826;BMP280;15077;49.704;9.908;2023-02-28T08:51:20;99132.22;;;3.71
27826;BMP280;15077;49.704;9.908;2023-02-28T08:53:58;99126.41;;;3.78
27826;BMP280;15077;49.704;9.908;2023-02-28T08:56:27;99132.25;;;3.80
27826;BMP280;15077;49.704;9.908;2023-02-28T08:58:55;99123.06;;;3.82
27826;BMP280;15077;49.704;9.908;2023-02-28T09:01:26;99126.44;;;3.91
27826;BMP280;15077;49.704;9.908;2023-02-28T09:03:56;99127.28;;;3.97
27826;BMP280;15077;49.704;9.908;2023-02-28T09:06:25;99128.97;;;4.04
27826;BMP280;15077;49.704;9.908;2023-02-28T09:08:52;99119.75;;;4.11
27826;BMP280;15077;49.704;9.908;2023-02-28T09:11:19;99121.44;;;4.16
27826;BMP280;15077;49.704;9.908;2023-02-28T09:13:46;99126.47;;;4.21
27826;BMP280;15077;49.704;9.908;2023-02-28T09:16:14;99119.75;;;4.21
27826;BMP280;15077;49.704;9.908;2023-02-28T09:18:42;99123.97;;;4.30
27826;BMP280;15077;49.704;9.908;2023-02-28T09:21:10;99121.44;;;4.35
27826;BMP280;15077;49.704;9.908;2023-02-28T09:23:43;99123.94;;;4.40
27826;BMP280;15077;49.704;9.908;2023-02-28T09:26:21;99123.13;;;4.48
27826;BMP280;15077;49.704;9.908;2023-02-28T09:28:48;99114.72;;;4.49
27826;BMP280;15077;49.704;9.908;2023-02-28T09:31:20;99127.28;;;4.57
27826;BMP280;15077;49.704;9.908;2023-02-28T09:33:51;99124.78;;;4.61
27826;BMP280;15077;49.704;9.908;2023-02-28T09:36:18;99132.31;;;4.69
27826;BMP280;15077;49.704;9.908;2023-02-28T09:38:44;99126.41;;;4.76
27826;BMP280;15077;49.704;9.908;2023-02-28T09:41:20;99132.28;;;4.86
27826;BMP280;15077;49.704;9.908;2023-02-28T09:43:52;99127.22;;;4.98
27826;BMP280;15077;49.704;9.908;2023-02-28T09:46:27;99130.56;;;5.00
27826;BMP280;15077;49.704;9.908;2023-02-28T09:48:54;99129.72;;;5.09
27826;BMP280;15077;49.704;9.908;2023-02-28T09:51:30;99127.19;;;5.13
27826;BMP280;15077;49.704;9.908;2023-02-28T09:53:58;99121.31;;;5.22
27826;BMP280;15077;49.704;9.908;2023-02-28T09:56:37;99127.94;;;5.33
27826;BMP280;15077;49.704;9.908;2023-02-28T09:59:29;99127.06;;;5.46
27826;BMP280;15077;49.704;9.908;2023-02-28T10:05:06;99130.34;;;5.60
27826;BMP280;15077;49.704;9.908;2023-02-28T10:12:59;99126.06;;;5.82
27826;BMP280;15077;49.704;9.908;2023-02-28T10:15:31;99111.75;;;5.90
27826;BMP280;15077;49.704;9.908;2023-02-28T10:18:04;99121.78;;;5.99
27826;BMP280;15077;49.704;9.908;2023-02-28T10:20:39;99125.06;;;6.07
27826;BMP280;15077;49.704;9.908;2023-02-28T10:23:20;99120.81;;;6.15
27826;BMP280;15077;49.704;9.908;2023-02-28T10:25:55;99119.06;;;6.26
27826;BMP280;15077;49.704;9.908;2023-02-28T10:28:24;99117.28;;;6.37
27826;BMP280;15077;49.704;9.908;2023-02-28T10:30:53;99123.09;;;6.42
27826;BMP280;15077;49.704;9.908;2023-02-28T10:33:35;99121.34;;;6.53
27826;BMP280;15077;49.704;9.908;2023-02-28T10:36:04;99115.38;;;6.64
27826;BMP280;15077;49.704;9.908;2023-02-28T10:38:36;99121.19;;;6.71
27826;BMP280;15077;49.704;9.908;2023-02-28T10:41:12;99116.00;;;6.85
27826;BMP280;15077;49.704;9.908;2023-02-28T10:43:41;99109.22;;;6.93
27826;BMP280;15077;49.704;9.908;2023-02-28T10:48:39;99107.25;;;7.16
27826;BMP280;15077;49.704;9.908;2023-02-28T10:51:12;99110.53;;;7.24
27826;BMP280;15077;49.704;9.908;2023-02-28T10:53:47;99105.38;;;7.33
27826;BMP280;15077;49.704;9.908;2023-02-28T10:56:25;99113.66;;;7.44
27826;BMP280;15077;49.704;9.908;2023-02-28T10:59:29;99103.41;;;7.56
27826;BMP280;15077;49.704;9.908;2023-02-28T11:01:55;99092.41;;;7.63
27826;BMP280;15077;49.704;9.908;2023-02-28T11:07:06;99092.13;;;7.82
27826;BMP280;15077;49.704;9.908;2023-02-28T11:09:48;99102.91;;;7.91
27826;BMP280;15077;49.704;9.908;2023-02-28T11:12:28;99096.16;;;7.93
27826;BMP280;15077;49.704;9.908;2023-02-28T11:15:04;99101.78;;;8.10
27826;BMP280;15077;49.704;9.908;2023-02-28T11:17:32;99110.09;;;8.18
27826;BMP280;15077;49.704;9.908;2023-02-28T11:20:07;99105.88;;;8.20
27826;BMP280;15077;49.704;9.908;2023-02-28T11:22:45;99112.66;;;8.17
27826;BMP280;15077;49.704;9.908;2023-02-28T11:25:33;99104.31;;;8.13
27826;BMP280;15077;49.704;9.908;2023-02-28T11:28:03;99103.50;;;8.10
27826;BMP280;15077;49.704;9.908;2023-02-28T11:30:37;99106.91;;;8.06
27826;BMP280;15077;49.704;9.908;2023-02-28T11:33:49;99095.28;;;7.96
27826;BMP280;15077;49.704;9.908;2023-02-28T11:36:21;99107.13;;;7.92
27826;BMP280;15077;49.704;9.908;2023-02-28T11:38:51;99105.50;;;7.87
27826;BMP280;15077;49.704;9.908;2023-02-28T11:41:46;99099.63;;;7.86
27826;BMP280;15077;49.704;9.908;2023-02-28T11:46:58;99106.31;;;7.90
27826;BMP280;15077;49.704;9.908;2023-02-28T11:55:41;99109.53;;;7.98
27826;BMP280;15077;49.704;9.908;2023-02-28T12:10:25;99092.72;;;8.53
27826;BMP280;15077;49.704;9.908;2023-02-28T12:13:29;99092.69;;;8.54
27826;BMP280;15077;49.704;9.908;2023-02-28T12:19:23;99097.78;;;8.51
27826;BMP280;15077;49.704;9.908;2023-02-28T12:27:50;99081.13;;;8.40
27826;BMP280;15077;49.704;9.908;2023-02-28T12:30:27;99086.19;;;8.40
27826;BMP280;15077;49.704;9.908;2023-02-28T12:33:08;99088.00;;;8.33
27826;BMP280;15077;49.704;9.908;2023-02-28T12:35:43;99089.69;;;8.33
27826;BMP280;15077;49.704;9.908;2023-02-28T12:41:45;99080.22;;;8.44
27826;BMP280;15077;49.704;9.908;2023-02-28T12:44:23;99080.94;;;8.50
27826;BMP280;15077;49.704;9.908;2023-02-28T12:46:59;99083.44;;;8.52
27826;BMP280;15077;49.704;9.908;2023-02-28T12:49:36;99073.41;;;8.47
27826;BMP280;15077;49.704;9.908;2023-02-28T12:52:05;99078.50;;;8.46
27826;BMP280;15077;49.704;9.908;2023-02-28T12:54:48;99079.34;;;8.46
27826;BMP280;15077;49.704;9.908;2023-02-28T12:59:51;99071.66;;;8.54
27826;BMP280;15077;49.704;9.908;2023-02-28T13:05:39;99063.06;;;8.61
27826;BMP280;15077;49.704;9.908;2023-02-28T13:11:41;99074.16;;;8.55
27826;BMP280;15077;49.704;9.908;2023-02-28T13:14:28;99076.69;;;8.54
27826;BMP280;15077;49.704;9.908;2023-02-28T13:19:26;99067.25;;;8.63
27826;BMP280;15077;49.704;9.908;2023-02-28T13:21:53;99072.19;;;8.69
27826;BMP280;15077;49.704;9.908;2023-02-28T13:24:45;99071.34;;;8.70
27826;BMP280;15077;49.704;9.908;2023-02-28T13:27:34;99060.31;;;8.75
27826;BMP280;15077;49.704;9.908;2023-02-28T13:33:35;99053.41;;;8.83
27826;BMP280;15077;49.704;9.908;2023-02-28T13:36:31;99058.31;;;8.91
27826;BMP280;15077;49.704;9.908;2023-02-28T13:39:49;99049.91;;;8.90
27826;BMP280;15077;49.704;9.908;2023-02-28T13:41:48;99049.13;;;8.85
27826;BMP280;15077;49.704;9.908;2023-02-28T13:44:23;99045.03;;;8.81
27826;BMP280;15077;49.704;9.908;2023-02-28T13:52:11;99050.34;;;8.67
27826;BMP280;15077;49.704;9.908;2023-02-28T13:58:27;99052.44;;;8.44
27826;BMP280;15077;49.704;9.908;2023-02-28T14:03:58;99047.19;;;8.56
27826;BMP280;15077;49.704;9.908;2023-02-28T14:06:32;99048.78;;;8.60
27826;BMP280;15077;49.704;9.908;2023-02-28T14:09:02;99037.69;;;8.67
27826;BMP280;15077;49.704;9.908;2023-02-28T14:11:36;99030.94;;;8.69
27826;BMP280;15077;49.704;9.908;2023-02-28T14:14:04;99039.25;;;8.73
27826;BMP280;15077;49.704;9.908;2023-02-28T14:16:46;99027.44;;;8.75
27826;BMP280;15077;49.704;9.908;2023-02-28T14:19:21;99029.09;;;8.76
27826;BMP280;15077;49.704;9.908;2023-02-28T14:22:38;99024.94;;;8.72
27826;BMP280;15077;49.704;9.908;2023-02-28T14:28:51;99028.47;;;8.66
27826;BMP280;15077;49.704;9.908;2023-02-28T14:31:44;99038.50;;;8.70
27826;BMP280;15077;49.704;9.908;2023-02-28T14:36:52;99026.50;;;8.79
27826;BMP280;15077;49.704;9.908;2023-02-28T14:39:25;99034.00;;;8.84
27826;BMP280;15077;49.704;9.908;2023-02-28T14:41:51;99032.31;;;8.84
27826;BMP280;15077;49.704;9.908;2023-02-28T14:44:24;99028.09;;;8.85
27826;BMP280;15077;49.704;9.908;2023-02-28T14:46:57;99034.09;;;8.79
27826;BMP280;15077;49.704;9.908;2023-02-28T14:49:25;99022.56;;;8.65
27826;BMP280;15077;49.704;9.908;2023-02-28T14:54:38;99022.31;;;8.78
27826;BMP280;15077;49.704;9.908;2023-02-28T14:57:05;99020.59;;;8.80
27826;BMP280;15077;49.704;9.908;2023-02-28T14:59:34;99021.34;;;8.84
27826;BMP280;15077;49.704;9.908;2023-02-28T15:02:35;99017.28;;;8.78
27826;BMP280;15077;49.704;9.908;2023-02-28T15:05:34;99020.53;;;8.83
27826;BMP280;15077;49.704;9.908;2023-02-28T15:08:12;99006.16;;;8.85
27826;BMP280;15077;49.704;9.908;2023-02-28T15:10:44;98999.41;;;8.87
27826;BMP280;15077;49.704;9.908;2023-02-28T15:13:15;99013.59;;;8.93
27826;BMP280;15077;49.704;9.908;2023-02-28T15:18:53;99009.34;;;8.96
27826;BMP280;15077;49.704;9.908;2023-02-28T15:21:24;99001.69;;;8.99
27826;BMP280;15077;49.704;9.908;2023-02-28T15:24:07;99003.31;;;9.00
27826;BMP280;15077;49.704;9.908;2023-02-28T15:26:41;99009.25;;;8.99
27826;BMP280;15077;49.704;9.908;2023-02-28T15:29:23;99020.28;;;8.95
27826;BMP280;15077;49.704;9.908;2023-02-28T15:32:00;99007.91;;;8.83
27826;BMP280;15077;49.704;9.908;2023-02-28T15:34:40;99006.97;;;8.87
27826;BMP280;15077;49.704;9.908;2023-02-28T15:37:46;99013.75;;;8.85
27826;BMP280;15077;49.704;9.908;2023-02-28T15:40:14;99019.56;;;8.90
27826;BMP280;15077;49.704;9.908;2023-02-28T15:42:42;99011.91;;;8.93
27826;BMP280;15077;49.704;9.908;2023-02-28T15:45:51;99021.22;;;8.91
27826;BMP280;15077;49.704;9.908;2023-02-28T15:48:22;99015.25;;;8.95
27826;BMP280;15077;49.704;9.908;2023-02-28T15:51:00;99012.72;;;8.95
27826;BMP280;15077;49.704;9.908;2023-02-28T15:53:34;99004.41;;;8.90
27826;BMP280;15077;49.704;9.908;2023-02-28T15:56:16;99007.81;;;8.88
27826;BMP280;15077;49.704;9.908;2023-02-28T15:58:44;99007.00;;;8.86
27826;BMP280;15077;49.704;9.908;2023-02-28T16:01:25;99009.53;;;8.86
27826;BMP280;15077;49.704;9.908;2023-02-28T16:03:57;99007.84;;;8.86
27826;BMP280;15077;49.704;9.908;2023-02-28T16:06:45;99009.59;;;8.83
27826;BMP280;15077;49.704;9.908;2023-02-28T16:09:15;99024.78;;;8.83
27826;BMP280;15077;49.704;9.908;2023-02-28T16:11:48;99022.31;;;8.80
27826;BMP280;15077;49.704;9.908;2023-02-28T16:14:19;99019.84;;;8.77
27826;BMP280;15077;49.704;9.908;2023-02-28T16:16:50;99026.63;;;8.73
27826;BMP280;15077;49.704;9.908;2023-02-28T16:19:18;99021.66;;;8.69
27826;BMP280;15077;49.704;9.908;2023-02-28T16:21:44;99018.31;;;8.67
27826;BMP280;15077;49.704;9.908;2023-02-28T16:24:11;99027.63;;;8.64
27826;BMP280;15077;49.704;9.908;2023-02-28T16:26:39;99026.06;;;8.60
27826;BMP280;15077;49.704;9.908;2023-02-28T16:29:06;99026.09;;;8.57
27826;BMP280;15077;49.704;9.908;2023-02-28T16:31:37;99027.81;;;8.55
27826;BMP280;15077;49.704;9.908;2023-02-28T16:34:04;99024.53;;;8.50
27826;BMP280;15077;49.704;9.908;2023-02-28T16:36:30;99027.13;;;8.47
27826;BMP280;15077;49.704;9.908;2023-02-28T16:38:56;99034.75;;;8.44